sensor_id;sensor_type;location;lat;lon;timestamp;temperature;humidity
11848;DHT22;5983;49.966;8.052;2023-05-10T00:02:25;14.10;99.90
11848;DHT22;5983;49.966;8.052;2023-05-10T00:04:52;14.10;99.90
11848;DHT22;5983;49.966;8.052;2023-05-10T00:07:19;14.10;99.90
11848;DHT22;5983;49.966;8.052;2023-05-10T00:09:45;14.10;99.90
11848;DHT22;5983;49.966;8.052;2023-05-10T00:12:12;14.10;99.90
11848;DHT22;5983;49.966;8.052;2023-05-10T00:14:39;14.10;99.90
11848;DHT22;5983;49.966;8.052;2023-05-10T00:17:06;14.10;99.90
11848;DHT22;5983;49.966;8.052;2023-05-10T00:19:34;14.10;99.90
11848;DHT22;5983;49.966;8.052;2023-05-10T00:22:00;14.10;99.90
11848;DHT22;5983;49.966;8.052;2023-05-10T00:24:28;14.10;99.90
11848;DHT22;5983;49.966;8.052;2023-05-10T00:26:55;14.00;99.90
11848;DHT22;5983;49.966;8.052;2023-05-10T00:29:21;14.10;99.90
11848;DHT22;5983;49.966;8.052;2023-05-10T00:31:48;14.10;99.90
11848;DHT22;5983;49.966;8.052;2023-05-10T00:34:15;14.10;99.90
11848;DHT22;5983;49.966;8.052;2023-05-10T00:36:43;14.10;99.90
11848;DHT22;5983;49.966;8.052;2023-05-10T00:39:10;14.10;99.90
11848;DHT22;5983;49.966;8.052;2023-05-10T00:41:37;14.10;99.90
11848;DHT22;5983;49.966;8.052;2023-05-10T00:44:04;14.10;99.90
11848;DHT22;5983;49.966;8.052;2023-05-10T00:46:31;14.00;99.90
11848;DHT22;5983;49.966;8.052;2023-05-10T00:48:58;14.00;99.90
11848;DHT22;5983;49.966;8.052;2023-05-10T00:51:25;14.00;99.90
11848;DHT22;5983;49.966;8.052;2023-05-10T00:53:53;14.00;99.90
11848;DHT22;5983;49.966;8.052;2023-05-10T00:56:21;14.00;99.90
11848;DHT22;5983;49.966;8.052;2023-05-10T00:58:49;14.00;99.90
11848;DHT22;5983;49.966;8.052;2023-05-10T01:01:16;14.00;99.90
11848;DHT22;5983;49.966;8.052;2023-05-10T01:03:43;14.00;99.90
11848;DHT22;5983;49.966;8.052;2023-05-10T01:06:10;14.00;99.90
11848;DHT22;5983;49.966;8.052;2023-05-10T01:08:37;14.00;99.90
11848;DHT22;5983;49.966;8.052;2023-05-10T01:11:05;14.00;99.90
11848;DHT22;5983;49.966;8.052;2023-05-10T01:13:33;14.00;99.90
11848;DHT22;5983;49.966;8.052;2023-05-10T01:16:01;13.90;99.90
11848;DHT22;5983;49.966;8.052;2023-05-10T01:18:28;13.90;99.90
11848;DHT22;5983;49.966;8.052;2023-05-10T01:21:01;13.90;99.90
11848;DHT22;5983;49.966;8.052;2023-05-10T01:23:45;13.90;99.90
11848;DHT22;5983;49.966;8.052;2023-05-10T01:26:37;14.00;99.90
11848;DHT22;5983;49.966;8.052;2023-05-10T01:29:27;14.00;99.90
11848;DHT22;5983;49.966;8.052;2023-05-10T01:32:17;14.00;99.90
11848;DHT22;5983;49.966;8.052;2023-05-10T01:34:53;14.00;99.90
11848;DHT22;5983;49.966;8.052;2023-05-10T01:37:28;13.90;99.90
11848;DHT22;5983;49.966;8.052;2023-05-10T01:40:00;13.90;99.90
11848;DHT22;5983;49.966;8.052;2023-05-10T01:42:35;13.90;99.90
11848;DHT22;5983;49.966;8.052;2023-05-10T01:45:07;13.90;99.90
11848;DHT22;5983;49.966;8.052;2023-05-10T01:47:42;13.90;99.90
11848;DHT22;5983;49.966;8.052;2023-05-10T01:50:13;13.90;99.90
11848;DHT22;5983;49.966;8.052;2023-05-10T01:52:44;13.80;99.90
11848;DHT22;5983;49.966;8.052;2023-05-10T01:55:16;13.80;99.90
11848;DHT22;5983;49.966;8.052;2023-05-10T01:57:46;13.80;99.90
11848;DHT22;5983;49.966;8.052;2023-05-10T02:00:17;13.80;99.90
11848;DHT22;5983;49.966;8.052;2023-05-10T02:02:47;13.80;99.90
11848;DHT22;5983;49.966;8.052;2023-05-10T02:05:15;13.80;99.90
11848;DHT22;5983;49.966;8.052;2023-05-10T02:07:43;13.80;99.90
11848;DHT22;5983;49.966;8.052;2023-05-10T02:10:11;13.80;99.90
11848;DHT22;5983;49.966;8.052;2023-05-10T02:12:40;13.70;99.90
11848;DHT22;5983;49.966;8.052;2023-05-10T02:15:08;13.80;99.90
11848;DHT22;5983;49.966;8.052;2023-05-10T02:17:37;13.80;99.90
11848;DHT22;5983;49.966;8.052;2023-05-10T02:20:08;13.80;99.90
11848;DHT22;5983;49.966;8.052;2023-05-10T02:22:36;13.90;99.90
11848;DHT22;5983;49.966;8.052;2023-05-10T02:25:03;13.90;99.90
11848;DHT22;5983;49.966;8.052;2023-05-10T02:27:31;13.90;99.90
11848;DHT22;5983;49.966;8.052;2023-05-10T02:29:58;13.90;99.90
11848;DHT22;5983;49.966;8.052;2023-05-10T02:32:26;13.90;99.90
11848;DHT22;5983;49.966;8.052;2023-05-10T02:34:53;13.80;99.90
11848;DHT22;5983;49.966;8.052;2023-05-10T02:37:23;13.80;99.90
11848;DHT22;5983;49.966;8.052;2023-05-10T02:39:52;13.80;99.90
11848;DHT22;5983;49.966;8.052;2023-05-10T02:42:22;13.80;99.90
11848;DHT22;5983;49.966;8.052;2023-05-10T02:44:52;13.80;99.90
11848;DHT22;5983;49.966;8.052;2023-05-10T02:47:22;13.70;99.90
11848;DHT22;5983;49.966;8.052;2023-05-10T02:49:49;13.70;99.90
11848;DHT22;5983;49.966;8.052;2023-05-10T02:52:16;13.70;99.90
11848;DHT22;5983;49.966;8.052;2023-05-10T02:54:50;13.80;99.90
11848;DHT22;5983;49.966;8.052;2023-05-10T02:57:22;13.80;99.90
11848;DHT22;5983;49.966;8.052;2023-05-10T02:59:52;13.80;99.90
11848;DHT22;5983;49.966;8.052;2023-05-10T03:02:20;13.80;99.90
11848;DHT22;5983;49.966;8.052;2023-05-10T03:04:46;13.80;99.90
11848;DHT22;5983;49.966;8.052;2023-05-10T03:09:40;13.70;99.90
11848;DHT22;5983;49.966;8.052;2023-05-10T03:12:11;13.80;99.90
11848;DHT22;5983;49.966;8.052;2023-05-10T03:14:47;13.80;99.90
11848;DHT22;5983;49.966;8.052;2023-05-10T03:17:22;13.70;99.90
11848;DHT22;5983;49.966;8.052;2023-05-10T03:19:53;13.70;99.90
11848;DHT22;5983;49.966;8.052;2023-05-10T03:22:22;13.80;99.90
11848;DHT22;5983;49.966;8.052;2023-05-10T03:24:51;13.80;99.90
11848;DHT22;5983;49.966;8.052;2023-05-10T03:27:23;13.80;99.90
11848;DHT22;5983;49.966;8.052;2023-05-10T03:29:52;13.80;99.90
11848;DHT22;5983;49.966;8.052;2023-05-10T03:32:21;13.70;99.90
11848;DHT22;5983;49.966;8.052;2023-05-10T03:34:48;13.70;99.90
11848;DHT22;5983;49.966;8.052;2023-05-10T03:37:14;13.80;99.90
11848;DHT22;5983;49.966;8.052;2023-05-10T03:39:41;13.70;99.90
11848;DHT22;5983;49.966;8.052;2023-05-10T03:42:08;13.80;99.90
11848;DHT22;5983;49.966;8.052;2023-05-10T03:44:38;13.70;99.90
11848;DHT22;5983;49.966;8.052;2023-05-10T03:47:05;13.80;99.90
11848;DHT22;5983;49.966;8.052;2023-05-10T03:49:32;13.80;99.90
11848;DHT22;5983;49.966;8.052;2023-05-10T03:51:58;13.80;99.90
11848;DHT22;5983;49.966;8.052;2023-05-10T03:54:25;13.70;99.90
11848;DHT22;5983;49.966;8.052;2023-05-10T03:56:52;13.70;99.90
11848;DHT22;5983;49.966;8.052;2023-05-10T03:59:18;13.80;99.90
11848;DHT22;5983;49.966;8.052;2023-05-10T04:01:46;13.70;99.90
11848;DHT22;5983;49.966;8.052;2023-05-10T04:04:13;13.70;99.90
11848;DHT22;5983;49.966;8.052;2023-05-10T04:06:40;13.70;99.90
11848;DHT22;5983;49.966;8.052;2023-05-10T04:09:07;13.70;99.90
11848;DHT22;5983;49.966;8.052;2023-05-10T04:11:34;13.70;99.90
11848;DHT22;5983;49.966;8.052;2023-05-10T04:14:01;13.80;99.90
11848;DHT22;5983;49.966;8.052;2023-05-10T04:16:27;13.70;99.90
11848;DHT22;5983;49.966;8.052;2023-05-10T04:18:56;13.70;99.90
11848;DHT22;5983;49.966;8.052;2023-05-10T04:21:22;13.70;99.90
11848;DHT22;5983;49.966;8.052;2023-05-10T04:23:49;13.70;99.90
11848;DHT22;5983;49.966;8.052;2023-05-10T04:26:16;13.70;99.90
11848;DHT22;5983;49.966;8.052;2023-05-10T04:28:43;13.70;99.90
11848;DHT22;5983;49.966;8.052;2023-05-10T04:31:10;13.70;99.90
11848;DHT22;5983;49.966;8.052;2023-05-10T04:33:37;13.70;99.90
11848;DHT22;5983;49.966;8.052;2023-05-10T04:36:05;13.70;99.90
11848;DHT22;5983;49.966;8.052;2023-05-10T04:38:32;13.70;99.90
11848;DHT22;5983;49.966;8.052;2023-05-10T04:41:05;13.70;99.90
11848;DHT22;5983;49.966;8.052;2023-05-10T04:43:33;13.70;99.90
11848;DHT22;5983;49.966;8.052;2023-05-10T04:46:00;13.70;99.90
11848;DHT22;5983;49.966;8.052;2023-05-10T04:48:26;13.70;99.90
11848;DHT22;5983;49.966;8.052;2023-05-10T04:50:53;13.80;99.90
11848;DHT22;5983;49.966;8.052;2023-05-10T04:53:21;13.70;99.90
11848;DHT22;5983;49.966;8.052;2023-05-10T04:55:48;13.70;99.90
11848;DHT22;5983;49.966;8.052;2023-05-10T04:58:15;13.70;99.90
11848;DHT22;5983;49.966;8.052;2023-05-10T05:00:42;13.70;99.90
11848;DHT22;5983;49.966;8.052;2023-05-10T05:03:09;13.70;99.90
11848;DHT22;5983;49.966;8.052;2023-05-10T05:05:36;13.70;99.90
11848;DHT22;5983;49.966;8.052;2023-05-10T05:08:03;13.60;99.90
11848;DHT22;5983;49.966;8.052;2023-05-10T05:10:31;13.70;99.90
11848;DHT22;5983;49.966;8.052;2023-05-10T05:12:58;13.70;99.90
11848;DHT22;5983;49.966;8.052;2023-05-10T05:15:24;13.70;99.90
11848;DHT22;5983;49.966;8.052;2023-05-10T05:17:51;13.70;99.90
11848;DHT22;5983;49.966;8.052;2023-05-10T05:20:18;13.80;99.90
11848;DHT22;5983;49.966;8.052;2023-05-10T05:22:45;13.90;99.90
11848;DHT22;5983;49.966;8.052;2023-05-10T05:25:11;14.00;99.90
11848;DHT22;5983;49.966;8.052;2023-05-10T05:27:40;14.10;99.90
11848;DHT22;5983;49.966;8.052;2023-05-10T05:30:07;14.30;99.90
11848;DHT22;5983;49.966;8.052;2023-05-10T05:32:34;14.50;99.90
11848;DHT22;5983;49.966;8.052;2023-05-10T05:35:01;14.70;99.90
11848;DHT22;5983;49.966;8.052;2023-05-10T05:37:27;14.80;99.90
11848;DHT22;5983;49.966;8.052;2023-05-10T05:39:54;15.00;99.90
11848;DHT22;5983;49.966;8.052;2023-05-10T05:42:21;15.10;99.90
11848;DHT22;5983;49.966;8.052;2023-05-10T05:44:49;15.20;99.90
11848;DHT22;5983;49.966;8.052;2023-05-10T05:47:16;15.30;99.90
11848;DHT22;5983;49.966;8.052;2023-05-10T05:49:42;15.40;99.90
11848;DHT22;5983;49.966;8.052;2023-05-10T05:52:11;15.50;99.90
11848;DHT22;5983;49.966;8.052;2023-05-10T05:54:38;15.60;99.90
11848;DHT22;5983;49.966;8.052;2023-05-10T05:57:04;15.70;99.90
11848;DHT22;5983;49.966;8.052;2023-05-10T05:59:31;15.80;99.90
11848;DHT22;5983;49.966;8.052;2023-05-10T06:01:59;15.90;99.90
11848;DHT22;5983;49.966;8.052;2023-05-10T06:04:26;16.00;99.90
11848;DHT22;5983;49.966;8.052;2023-05-10T06:06:53;16.20;99.90
11848;DHT22;5983;49.966;8.052;2023-05-10T06:09:19;16.30;99.90
11848;DHT22;5983;49.966;8.052;2023-05-10T06:11:46;16.40;99.90
11848;DHT22;5983;49.966;8.052;2023-05-10T06:14:13;16.60;99.90
11848;DHT22;5983;49.966;8.052;2023-05-10T06:16:40;16.60;99.90
11848;DHT22;5983;49.966;8.052;2023-05-10T06:19:08;16.70;99.90
11848;DHT22;5983;49.966;8.052;2023-05-10T06:21:34;16.70;99.90
11848;DHT22;5983;49.966;8.052;2023-05-10T06:24:01;16.80;99.90
11848;DHT22;5983;49.966;8.052;2023-05-10T06:26:28;16.90;99.90
11848;DHT22;5983;49.966;8.052;2023-05-10T06:28:55;17.00;99.90
11848;DHT22;5983;49.966;8.052;2023-05-10T06:31:22;17.10;99.90
11848;DHT22;5983;49.966;8.052;2023-05-10T06:33:48;17.20;99.90
11848;DHT22;5983;49.966;8.052;2023-05-10T06:36:16;17.40;99.90
11848;DHT22;5983;49.966;8.052;2023-05-10T06:38:43;17.40;99.90
11848;DHT22;5983;49.966;8.052;2023-05-10T06:41:10;17.50;99.90
11848;DHT22;5983;49.966;8.052;2023-05-10T06:43:36;17.70;99.90
11848;DHT22;5983;49.966;8.052;2023-05-10T06:46:05;17.70;99.90
11848;DHT22;5983;49.966;8.052;2023-05-10T06:48:32;17.70;99.90
11848;DHT22;5983;49.966;8.052;2023-05-10T06:50:59;17.80;99.90
11848;DHT22;5983;49.966;8.052;2023-05-10T06:53:27;17.80;99.90
11848;DHT22;5983;49.966;8.052;2023-05-10T06:55:54;17.70;99.90
11848;DHT22;5983;49.966;8.052;2023-05-10T06:58:20;17.70;99.90
11848;DHT22;5983;49.966;8.052;2023-05-10T07:00:48;17.90;99.90
11848;DHT22;5983;49.966;8.052;2023-05-10T07:03:15;18.10;99.90
11848;DHT22;5983;49.966;8.052;2023-05-10T07:05:42;18.20;99.90
11848;DHT22;5983;49.966;8.052;2023-05-10T07:08:09;18.30;99.90
11848;DHT22;5983;49.966;8.052;2023-05-10T07:10:37;18.30;99.90
11848;DHT22;5983;49.966;8.052;2023-05-10T07:13:03;18.40;99.90
11848;DHT22;5983;49.966;8.052;2023-05-10T07:15:30;18.40;99.90
11848;DHT22;5983;49.966;8.052;2023-05-10T07:17:57;18.40;99.90
11848;DHT22;5983;49.966;8.052;2023-05-10T07:20:23;18.40;99.90
11848;DHT22;5983;49.966;8.052;2023-05-10T07:22:50;18.40;99.90
11848;DHT22;5983;49.966;8.052;2023-05-10T07:25:17;18.40;99.90
11848;DHT22;5983;49.966;8.052;2023-05-10T07:27:45;18.30;99.90
11848;DHT22;5983;49.966;8.052;2023-05-10T07:30:13;18.40;99.90
11848;DHT22;5983;49.966;8.052;2023-05-10T07:32:41;18.50;99.90
11848;DHT22;5983;49.966;8.052;2023-05-10T07:35:08;18.60;99.90
11848;DHT22;5983;49.966;8.052;2023-05-10T07:37:35;18.70;99.90
11848;DHT22;5983;49.966;8.052;2023-05-10T07:40:02;18.90;99.90
11848;DHT22;5983;49.966;8.052;2023-05-10T07:42:28;18.90;99.90
11848;DHT22;5983;49.966;8.052;2023-05-10T07:44:56;18.90;99.90
11848;DHT22;5983;49.966;8.052;2023-05-10T07:47:23;18.90;99.90
11848;DHT22;5983;49.966;8.052;2023-05-10T07:49:50;18.70;99.90
11848;DHT22;5983;49.966;8.052;2023-05-10T07:52:16;18.60;99.90
11848;DHT22;5983;49.966;8.052;2023-05-10T07:54:43;18.60;99.90
11848;DHT22;5983;49.966;8.052;2023-05-10T07:57:10;18.40;99.90
11848;DHT22;5983;49.966;8.052;2023-05-10T07:59:39;18.40;99.90
11848;DHT22;5983;49.966;8.052;2023-05-10T08:02:07;18.30;99.90
11848;DHT22;5983;49.966;8.052;2023-05-10T08:04:34;18.30;99.90
11848;DHT22;5983;49.966;8.052;2023-05-10T08:07:01;18.30;99.90
11848;DHT22;5983;49.966;8.052;2023-05-10T08:09:28;18.40;99.90
11848;DHT22;5983;49.966;8.052;2023-05-10T08:11:54;18.40;99.90
11848;DHT22;5983;49.966;8.052;2023-05-10T08:14:21;18.50;99.90
11848;DHT22;5983;49.966;8.052;2023-05-10T08:16:48;18.50;99.90
11848;DHT22;5983;49.966;8.052;2023-05-10T08:19:16;18.50;99.90
11848;DHT22;5983;49.966;8.052;2023-05-10T08:21:44;18.40;99.90
11848;DHT22;5983;49.966;8.052;2023-05-10T08:24:11;18.40;99.90
11848;DHT22;5983;49.966;8.052;2023-05-10T08:26:38;18.30;99.90
11848;DHT22;5983;49.966;8.052;2023-05-10T08:29:05;18.30;99.90
11848;DHT22;5983;49.966;8.052;2023-05-10T08:31:32;18.30;99.90
11848;DHT22;5983;49.966;8.052;2023-05-10T08:33:58;18.20;99.90
11848;DHT22;5983;49.966;8.052;2023-05-10T08:36:26;18.20;99.90
11848;DHT22;5983;49.966;8.052;2023-05-10T08:38:53;18.20;99.90
11848;DHT22;5983;49.966;8.052;2023-05-10T08:41:20;18.30;99.90
11848;DHT22;5983;49.966;8.052;2023-05-10T08:43:49;18.30;99.90
11848;DHT22;5983;49.966;8.052;2023-05-10T08:46:17;18.40;99.90
11848;DHT22;5983;49.966;8.052;2023-05-10T08:48:45;18.40;99.90
11848;DHT22;5983;49.966;8.052;2023-05-10T08:51:13;18.40;99.90
11848;DHT22;5983;49.966;8.052;2023-05-10T08:53:43;18.40;99.90
11848;DHT22;5983;49.966;8.052;2023-05-10T08:56:10;18.40;99.90
11848;DHT22;5983;49.966;8.052;2023-05-10T08:58:37;18.30;99.90
11848;DHT22;5983;49.966;8.052;2023-05-10T09:01:04;18.10;99.90
11848;DHT22;5983;49.966;8.052;2023-05-10T09:03:32;18.00;99.90
11848;DHT22;5983;49.966;8.052;2023-05-10T09:05:58;18.00;99.90
11848;DHT22;5983;49.966;8.052;2023-05-10T09:08:25;18.00;99.90
11848;DHT22;5983;49.966;8.052;2023-05-10T09:10:54;18.10;99.90
11848;DHT22;5983;49.966;8.052;2023-05-10T09:13:22;18.20;99.90
11848;DHT22;5983;49.966;8.052;2023-05-10T09:15:49;18.30;99.90
11848;DHT22;5983;49.966;8.052;2023-05-10T09:18:16;18.30;99.90
11848;DHT22;5983;49.966;8.052;2023-05-10T09:20:43;18.40;99.90
11848;DHT22;5983;49.966;8.052;2023-05-10T09:23:10;18.40;99.90
11848;DHT22;5983;49.966;8.052;2023-05-10T09:25:37;18.60;99.90
11848;DHT22;5983;49.966;8.052;2023-05-10T09:28:07;18.70;99.90
11848;DHT22;5983;49.966;8.052;2023-05-10T09:30:34;19.00;99.90
11848;DHT22;5983;49.966;8.052;2023-05-10T09:33:02;19.50;99.90
11848;DHT22;5983;49.966;8.052;2023-05-10T09:35:30;20.00;99.90
11848;DHT22;5983;49.966;8.052;2023-05-10T09:37:59;20.40;99.90
11848;DHT22;5983;49.966;8.052;2023-05-10T09:40:28;20.60;99.90
11848;DHT22;5983;49.966;8.052;2023-05-10T09:42:56;20.70;99.90
11848;DHT22;5983;49.966;8.052;2023-05-10T09:45:25;20.70;99.90
11848;DHT22;5983;49.966;8.052;2023-05-10T09:47:53;20.80;99.90
11848;DHT22;5983;49.966;8.052;2023-05-10T09:50:20;20.80;99.90
11848;DHT22;5983;49.966;8.052;2023-05-10T09:52:48;20.90;99.90
11848;DHT22;5983;49.966;8.052;2023-05-10T09:55:18;20.90;99.90
11848;DHT22;5983;49.966;8.052;2023-05-10T09:57:47;20.90;99.90
11848;DHT22;5983;49.966;8.052;2023-05-10T10:00:17;20.90;99.90
11848;DHT22;5983;49.966;8.052;2023-05-10T10:02:47;20.90;99.90
11848;DHT22;5983;49.966;8.052;2023-05-10T10:05:14;20.80;99.90
11848;DHT22;5983;49.966;8.052;2023-05-10T10:07:41;20.80;99.90
11848;DHT22;5983;49.966;8.052;2023-05-10T10:10:08;21.00;99.90
11848;DHT22;5983;49.966;8.052;2023-05-10T10:12:38;21.10;99.90
11848;DHT22;5983;49.966;8.052;2023-05-10T10:15:08;21.20;99.90
11848;DHT22;5983;49.966;8.052;2023-05-10T10:17:35;21.20;99.90
11848;DHT22;5983;49.966;8.052;2023-05-10T10:20:05;21.20;99.90
11848;DHT22;5983;49.966;8.052;2023-05-10T10:22:33;21.20;99.90
11848;DHT22;5983;49.966;8.052;2023-05-10T10:25:00;21.10;99.90
11848;DHT22;5983;49.966;8.052;2023-05-10T10:27:28;21.10;99.90
11848;DHT22;5983;49.966;8.052;2023-05-10T10:30:04;21.10;99.90
11848;DHT22;5983;49.966;8.052;2023-05-10T10:32:44;21.00;99.90
11848;DHT22;5983;49.966;8.052;2023-05-10T10:35:28;20.90;99.90
11848;DHT22;5983;49.966;8.052;2023-05-10T10:37:56;20.70;99.90
11848;DHT22;5983;49.966;8.052;2023-05-10T10:40:23;20.50;99.90
11848;DHT22;5983;49.966;8.052;2023-05-10T10:42:51;20.30;99.90
11848;DHT22;5983;49.966;8.052;2023-05-10T10:45:19;20.30;99.90
11848;DHT22;5983;49.966;8.052;2023-05-10T10:47:46;20.20;99.90
11848;DHT22;5983;49.966;8.052;2023-05-10T10:50:13;20.20;99.90
11848;DHT22;5983;49.966;8.052;2023-05-10T10:52:43;20.20;99.90
11848;DHT22;5983;49.966;8.052;2023-05-10T10:55:10;20.30;99.90
11848;DHT22;5983;49.966;8.052;2023-05-10T10:57:48;20.40;99.90
11848;DHT22;5983;49.966;8.052;2023-05-10T11:00:21;20.40;99.90
11848;DHT22;5983;49.966;8.052;2023-05-10T11:02:53;20.50;99.90
11848;DHT22;5983;49.966;8.052;2023-05-10T11:05:22;20.70;99.90
11848;DHT22;5983;49.966;8.052;2023-05-10T11:07:52;20.90;99.90
11848;DHT22;5983;49.966;8.052;2023-05-10T11:10:19;21.00;99.90
11848;DHT22;5983;49.966;8.052;2023-05-10T11:12:53;21.00;99.90
11848;DHT22;5983;49.966;8.052;2023-05-10T11:15:29;21.10;99.90
11848;DHT22;5983;49.966;8.052;2023-05-10T11:17:56;21.20;99.90
11848;DHT22;5983;49.966;8.052;2023-05-10T11:20:23;21.30;99.90
11848;DHT22;5983;49.966;8.052;2023-05-10T11:23:10;21.60;99.90
11848;DHT22;5983;49.966;8.052;2023-05-10T11:25:40;21.90;99.90
11848;DHT22;5983;49.966;8.052;2023-05-10T11:28:08;22.30;99.90
11848;DHT22;5983;49.966;8.052;2023-05-10T11:30:35;22.60;99.90
11848;DHT22;5983;49.966;8.052;2023-05-10T11:33:02;22.70;99.90
11848;DHT22;5983;49.966;8.052;2023-05-10T11:35:29;22.80;99.90
11848;DHT22;5983;49.966;8.052;2023-05-10T11:37:55;22.70;99.90
11848;DHT22;5983;49.966;8.052;2023-05-10T11:40:23;22.60;99.90
11848;DHT22;5983;49.966;8.052;2023-05-10T11:42:51;22.40;99.90
11848;DHT22;5983;49.966;8.052;2023-05-10T11:45:18;22.00;99.90
11848;DHT22;5983;49.966;8.052;2023-05-10T11:47:48;21.70;99.90
11848;DHT22;5983;49.966;8.052;2023-05-10T11:50:15;21.30;99.90
11848;DHT22;5983;49.966;8.052;2023-05-10T11:52:43;20.90;99.90
11848;DHT22;5983;49.966;8.052;2023-05-10T11:55:10;20.80;99.90
11848;DHT22;5983;49.966;8.052;2023-05-10T11:57:38;20.90;99.90
11848;DHT22;5983;49.966;8.052;2023-05-10T12:00:07;21.10;99.90
11848;DHT22;5983;49.966;8.052;2023-05-10T12:02:34;21.40;99.90
11848;DHT22;5983;49.966;8.052;2023-05-10T12:05:01;21.60;99.90
11848;DHT22;5983;49.966;8.052;2023-05-10T12:07:28;21.90;99.90
11848;DHT22;5983;49.966;8.052;2023-05-10T12:10:07;22.10;99.90
11848;DHT22;5983;49.966;8.052;2023-05-10T12:12:39;22.30;99.90
11848;DHT22;5983;49.966;8.052;2023-05-10T12:15:11;22.40;99.90
11848;DHT22;5983;49.966;8.052;2023-05-10T12:17:43;22.50;99.90
11848;DHT22;5983;49.966;8.052;2023-05-10T12:20:13;22.50;99.90
11848;DHT22;5983;49.966;8.052;2023-05-10T12:22:44;22.50;99.90
11848;DHT22;5983;49.966;8.052;2023-05-10T12:25:12;22.30;99.90
11848;DHT22;5983;49.966;8.052;2023-05-10T12:27:40;22.20;99.90
11848;DHT22;5983;49.966;8.052;2023-05-10T12:30:08;22.00;99.90
11848;DHT22;5983;49.966;8.052;2023-05-10T12:32:38;21.80;99.90
11848;DHT22;5983;49.966;8.052;2023-05-10T12:35:06;21.60;99.90
11848;DHT22;5983;49.966;8.052;2023-05-10T12:37:33;21.50;99.90
11848;DHT22;5983;49.966;8.052;2023-05-10T12:40:05;21.30;99.90
11848;DHT22;5983;49.966;8.052;2023-05-10T12:42:33;21.20;99.90
11848;DHT22;5983;49.966;8.052;2023-05-10T12:45:02;21.10;99.90
11848;DHT22;5983;49.966;8.052;2023-05-10T12:47:30;21.10;99.90
11848;DHT22;5983;49.966;8.052;2023-05-10T12:49:57;21.10;99.90
11848;DHT22;5983;49.966;8.052;2023-05-10T12:52:24;21.00;99.90
11848;DHT22;5983;49.966;8.052;2023-05-10T12:54:51;21.00;99.90
11848;DHT22;5983;49.966;8.052;2023-05-10T12:57:18;21.10;99.90
11848;DHT22;5983;49.966;8.052;2023-05-10T12:59:44;21.20;99.90
11848;DHT22;5983;49.966;8.052;2023-05-10T13:02:12;21.30;99.90
11848;DHT22;5983;49.966;8.052;2023-05-10T13:04:39;21.40;99.90
11848;DHT22;5983;49.966;8.052;2023-05-10T13:07:07;21.60;99.90
11848;DHT22;5983;49.966;8.052;2023-05-10T13:09:34;21.80;99.90
11848;DHT22;5983;49.966;8.052;2023-05-10T13:12:01;22.00;99.90
11848;DHT22;5983;49.966;8.052;2023-05-10T13:14:28;22.10;99.90
11848;DHT22;5983;49.966;8.052;2023-05-10T13:16:55;22.30;99.90
11848;DHT22;5983;49.966;8.052;2023-05-10T13:19:23;22.40;99.90
11848;DHT22;5983;49.966;8.052;2023-05-10T13:21:50;22.60;99.90
11848;DHT22;5983;49.966;8.052;2023-05-10T13:24:17;22.70;99.90
11848;DHT22;5983;49.966;8.052;2023-05-10T13:26:43;22.70;99.90
11848;DHT22;5983;49.966;8.052;2023-05-10T13:29:10;22.70;99.90
11848;DHT22;5983;49.966;8.052;2023-05-10T13:31:37;22.60;99.90
11848;DHT22;5983;49.966;8.052;2023-05-10T13:34:04;22.30;99.90
11848;DHT22;5983;49.966;8.052;2023-05-10T13:36:33;22.00;99.90
11848;DHT22;5983;49.966;8.052;2023-05-10T13:39:00;21.90;99.90
11848;DHT22;5983;49.966;8.052;2023-05-10T13:41:28;21.90;99.90
11848;DHT22;5983;49.966;8.052;2023-05-10T13:43:55;21.80;99.90
11848;DHT22;5983;49.966;8.052;2023-05-10T13:46:22;21.90;99.90
11848;DHT22;5983;49.966;8.052;2023-05-10T13:48:48;22.20;99.90
11848;DHT22;5983;49.966;8.052;2023-05-10T13:51:15;22.30;99.90
11848;DHT22;5983;49.966;8.052;2023-05-10T13:53:43;22.50;99.90
11848;DHT22;5983;49.966;8.052;2023-05-10T13:56:12;22.60;99.90
11848;DHT22;5983;49.966;8.052;2023-05-10T13:58:39;22.70;99.90
11848;DHT22;5983;49.966;8.052;2023-05-10T14:01:06;22.70;99.90
11848;DHT22;5983;49.966;8.052;2023-05-10T14:03:33;22.40;99.90
11848;DHT22;5983;49.966;8.052;2023-05-10T14:06:00;22.20;99.90
11848;DHT22;5983;49.966;8.052;2023-05-10T14:08:26;22.10;99.90
11848;DHT22;5983;49.966;8.052;2023-05-10T14:10:55;22.00;99.90
11848;DHT22;5983;49.966;8.052;2023-05-10T14:13:23;22.00;99.90
11848;DHT22;5983;49.966;8.052;2023-05-10T14:15:50;21.80;99.90
11848;DHT22;5983;49.966;8.052;2023-05-10T14:18:16;21.60;99.90
11848;DHT22;5983;49.966;8.052;2023-05-10T14:20:43;21.50;99.90
11848;DHT22;5983;49.966;8.052;2023-05-10T14:23:10;21.50;99.90
11848;DHT22;5983;49.966;8.052;2023-05-10T14:25:37;21.40;99.90
11848;DHT22;5983;49.966;8.052;2023-05-10T14:28:05;21.30;99.90
11848;DHT22;5983;49.966;8.052;2023-05-10T14:30:32;21.20;99.90
11848;DHT22;5983;49.966;8.052;2023-05-10T14:32:59;21.00;99.90
11848;DHT22;5983;49.966;8.052;2023-05-10T14:35:26;20.90;99.90
11848;DHT22;5983;49.966;8.052;2023-05-10T14:37:53;20.80;99.90
11848;DHT22;5983;49.966;8.052;2023-05-10T14:40:20;20.90;99.90
11848;DHT22;5983;49.966;8.052;2023-05-10T14:42:47;20.70;99.90
11848;DHT22;5983;49.966;8.052;2023-05-10T14:45:15;20.70;99.90
11848;DHT22;5983;49.966;8.052;2023-05-10T14:47:41;20.60;99.90
11848;DHT22;5983;49.966;8.052;2023-05-10T14:50:08;20.60;99.90
11848;DHT22;5983;49.966;8.052;2023-05-10T14:52:35;20.60;99.90
11848;DHT22;5983;49.966;8.052;2023-05-10T14:55:02;20.50;99.90
11848;DHT22;5983;49.966;8.052;2023-05-10T14:57:29;20.40;99.90
11848;DHT22;5983;49.966;8.052;2023-05-10T14:59:56;20.50;99.90
11848;DHT22;5983;49.966;8.052;2023-05-10T15:02:24;20.60;99.90
11848;DHT22;5983;49.966;8.052;2023-05-10T15:04:51;20.30;99.90
11848;DHT22;5983;49.966;8.052;2023-05-10T15:07:17;20.30;99.90
11848;DHT22;5983;49.966;8.052;2023-05-10T15:09:44;20.30;99.90
11848;DHT22;5983;49.966;8.052;2023-05-10T15:12:11;20.30;99.90
11848;DHT22;5983;49.966;8.052;2023-05-10T15:14:38;20.40;99.90
11848;DHT22;5983;49.966;8.052;2023-05-10T15:17:05;20.30;99.90
11848;DHT22;5983;49.966;8.052;2023-05-10T15:19:34;20.30;99.90
11848;DHT22;5983;49.966;8.052;2023-05-10T15:22:01;20.20;99.90
11848;DHT22;5983;49.966;8.052;2023-05-10T15:24:28;20.20;99.90
11848;DHT22;5983;49.966;8.052;2023-05-10T15:26:54;20.10;99.90
11848;DHT22;5983;49.966;8.052;2023-05-10T15:29:21;20.20;99.90
11848;DHT22;5983;49.966;8.052;2023-05-10T15:31:48;20.20;99.90
11848;DHT22;5983;49.966;8.052;2023-05-10T15:34:16;20.20;99.90
11848;DHT22;5983;49.966;8.052;2023-05-10T15:36:45;20.20;99.90
11848;DHT22;5983;49.966;8.052;2023-05-10T15:39:12;20.10;99.90
11848;DHT22;5983;49.966;8.052;2023-05-10T15:41:38;20.10;99.90
11848;DHT22;5983;49.966;8.052;2023-05-10T15:44:05;20.10;99.90
11848;DHT22;5983;49.966;8.052;2023-05-10T15:46:32;20.10;99.90
11848;DHT22;5983;49.966;8.052;2023-05-10T15:48:59;20.00;99.90
11848;DHT22;5983;49.966;8.052;2023-05-10T15:51:26;19.90;99.90
11848;DHT22;5983;49.966;8.052;2023-05-10T15:53:54;19.90;99.90